Terminal Aerodrome Forecast
Issued by NWS

Home | Current Version | Previous Version | Text Only | Print | Product List | Glossary On
Versions: 1 2 3 4 5 6 7 8 9 10 11 12 13 14 15 16 17 18 19
000
FTUS45 KBOI 102349
TAFJER
TAF
KJER 102349Z 1100/1124 VRB05KT 6SM BR FEW020 OVC050
     FM110200 24011KT 3SM BR BKN005 OVC020
     FM111700 VRB06KT P6SM SCT020=

USA.gov is the U.S. government's official web portal to all federal, state and local government web resources and services.